Mayer, MN

7:19 PM CST on December 21, 2014 (GMT -0600)
Flying Cloud | Change Station
CLOSE
Current Station
Airport
Location: Minneapolis Flying Cloud,
Elevation: 906 ft
Nearby Weather Stations

Elev 906 ft 44.83 °N, 93.46 °W | Updated 26 minutes ago

Overcast
Overcast
37 °F
Feels Like 29 °F
N
12
Wind Variable Wind from South

Today
High -- | Low -- °F
--% Chance of Precip.
Yesterday
High -- | Low -- °F
Precip. -- in
7:50 AM 4:37 PM
Waning Crescent, 0% visible
Pressure 29.75 in
Visibility 2.5 miles
Clouds Overcast 300 ft
Windchill 29 °F
Dew Point 36 °F
Humidity 96%
Rainfall 0.05 in
Snow Depth Not available.
UV 0 out of 12
Pollen .10 out of 12
Air Quality Not available.
Flu Activity Not available.
METAR KFCM 220053Z 17010KT 2 1/2SM BR OVC003 03/02 A2972 RMK AO2 SLP072 T00280022

More Conditions Fewer Conditions

Pressure 29.75 in
Visibility 2.5 miles
Clouds Overcast 300 ft
Windchill 29 °F
Dew Point 36 °F
Humidity 96%
Rainfall 0.05 in
Snow Depth Not available.
UV 0 out of 12
Pollen .10 out of 12
Air Quality Not available.
Flu Activity Not available.
METAR KFCM 220053Z 17010KT 2 1/2SM BR OVC003 03/02 A2972 RMK AO2 SLP072 T00280022

More Conditions Fewer Conditions

10-Day Weather Forecast

Almanac

Astronomy

Dec. 21, 2014 Rise Set
Actual Time
Civil Twilight
Nautical Twilight
Astronomical Twilight
Moon
Length of Visible Light
Length of Day
Tomorrow will be .
, % of the Moon is Illuminated

Today's Extremes

State Highs State Lows

Community

WunderPhotos

Upload Photos

1,779,511 photos uploaded!

WunderBlogs® & News

Nearby

Air Quality

  Air Quality AQ Index Pollutant
Not available.

Snow Depth

Station Depth Elevation

Earthquake Activity

City Distance Mag. Time & Date
Minimum magnitude displayed is 2.5.

Coastal Water Temperatures

Place Temperature

Nearby Weather Stations